Terminal Aerodrome Forecast
Issued by NWS Wilmington, OH

Current Version | Previous Version | Graphics & Text | Print | Product List | Glossary On
Versions: 1 2 3 4 5 6 7 8 9 10 11 12 13 14 15 16 17 18 19 20 21 22 23 24 25 26 27 28 29 30
000
FTUS41 KILN 251500 AAC
TAFCVG
TAF AMD
KCVG 251541Z 2516/2618 21012G21KT P6SM VCSH BKN040
     FM252300 19008KT P6SM BKN060
     FM261300 20011KT P6SM SCT030=

USA.gov is the U.S. government's official web portal to all federal, state and local government web resources and services.